createdAt,value
2023-04-01T00:01:28.191Z,9.90
2023-04-01T00:03:55.619Z,9.90
2023-04-01T00:06:22.854Z,9.90
2023-04-01T00:08:49.910Z,9.90
2023-04-01T00:11:17.448Z,9.90
2023-04-01T00:13:47.950Z,9.90
2023-04-01T00:16:21.529Z,9.90
2023-04-01T00:18:50.213Z,9.90
2023-04-01T00:21:17.105Z,9.90
2023-04-01T00:23:44.744Z,9.90
2023-04-01T00:26:13.109Z,9.90
2023-04-01T00:28:41.004Z,9.90
2023-04-01T00:31:09.311Z,9.90
2023-04-01T00:33:36.656Z,9.90
2023-04-01T00:36:14.465Z,9.90
2023-04-01T00:38:43.373Z,9.90
2023-04-01T00:41:15.245Z,9.90
2023-04-01T00:43:47.662Z,9.90
2023-04-01T00:46:15.008Z,10.00
2023-04-01T00:48:49.244Z,10.00
2023-04-01T00:51:23.811Z,9.90
2023-04-01T00:53:53.782Z,9.90
2023-04-01T00:56:26.143Z,9.90
2023-04-01T00:59:01.419Z,9.90
2023-04-01T01:01:30.720Z,9.90
2023-04-01T01:03:57.860Z,9.90
2023-04-01T01:06:39.976Z,9.90
2023-04-01T01:09:47.776Z,9.90
2023-04-01T01:12:22.978Z,9.90
2023-04-01T01:15:17.047Z,9.90
2023-04-01T01:18:16.073Z,9.90
2023-04-01T01:21:05.865Z,10.00
2023-04-01T01:23:57.684Z,9.90
2023-04-01T01:26:59.848Z,10.00
2023-04-01T01:29:58.833Z,10.00
2023-04-01T01:32:44.384Z,10.00
2023-04-01T01:35:41.458Z,10.00
2023-04-01T01:38:18.837Z,9.90
2023-04-01T01:40:55.306Z,9.90
2023-04-01T01:43:32.770Z,9.90
2023-04-01T01:46:07.557Z,9.90
2023-04-01T01:48:36.446Z,9.90
2023-04-01T01:51:07.574Z,10.00
2023-04-01T01:53:35.350Z,10.00
2023-04-01T01:56:02.499Z,10.00
2023-04-01T01:58:41.405Z,10.10
2023-04-01T02:01:20.307Z,10.10
2023-04-01T02:03:48.737Z,10.00
2023-04-01T02:06:19.251Z,10.10
2023-04-01T02:08:53.827Z,10.10
2023-04-01T02:11:46.893Z,10.00
2023-04-01T02:14:30.641Z,10.00
2023-04-01T02:17:09.617Z,10.00
2023-04-01T02:19:42.909Z,10.00
2023-04-01T02:22:17.487Z,10.00
2023-04-01T02:24:46.378Z,9.90
2023-04-01T02:27:13.689Z,9.90
2023-04-01T02:29:40.661Z,9.90
2023-04-01T02:32:09.663Z,9.90
2023-04-01T02:34:37.081Z,9.90
2023-04-01T02:37:04.272Z,9.90
2023-04-01T02:39:31.188Z,9.90
2023-04-01T02:41:58.010Z,9.90
2023-04-01T02:44:24.771Z,9.90
2023-04-01T02:46:51.681Z,9.90
2023-04-01T02:49:18.473Z,9.90
2023-04-01T02:51:45.909Z,10.00
2023-04-01T02:54:12.735Z,10.00
2023-04-01T02:56:39.748Z,9.90
2023-04-01T02:59:06.516Z,10.00
2023-04-01T03:01:33.447Z,10.00
2023-04-01T03:04:00.359Z,10.00
2023-04-01T03:06:27.234Z,10.00
2023-04-01T03:08:54.012Z,9.90
2023-04-01T03:11:22.116Z,9.90
2023-04-01T03:13:49.704Z,9.90
2023-04-01T03:16:16.584Z,9.80
2023-04-01T03:18:43.437Z,9.70
2023-04-01T03:21:36.660Z,9.70
2023-04-01T03:24:03.637Z,9.70
2023-04-01T03:26:30.622Z,9.80
2023-04-01T03:28:58.318Z,9.80
2023-04-01T03:31:25.894Z,9.80
2023-04-01T03:33:56.116Z,9.80
2023-04-01T03:36:23.232Z,9.80
2023-04-01T03:38:50.189Z,9.80
2023-04-01T03:41:23.538Z,9.80
2023-04-01T03:43:50.653Z,9.70
2023-04-01T03:46:20.302Z,9.70
2023-04-01T03:48:47.729Z,9.70
2023-04-01T03:51:14.638Z,9.70
2023-04-01T03:53:41.747Z,9.70
2023-04-01T03:56:09.435Z,9.70
2023-04-01T03:58:37.815Z,9.60
2023-04-01T04:01:22.844Z,9.60
2023-04-01T04:03:53.520Z,9.60
2023-04-01T04:06:21.971Z,9.60
2023-04-01T04:08:49.859Z,9.60
2023-04-01T04:11:17.589Z,9.50
2023-04-01T04:13:44.564Z,9.60
2023-04-01T04:16:11.843Z,9.60
2023-04-01T04:18:43.506Z,9.60
2023-04-01T04:21:14.723Z,9.60
2023-04-01T04:23:42.686Z,9.60
2023-04-01T04:26:12.657Z,9.60
2023-04-01T04:28:40.308Z,9.60
2023-04-01T04:31:08.643Z,9.70
2023-04-01T04:33:36.743Z,9.70
2023-04-01T04:36:05.655Z,9.70
2023-04-01T04:38:32.872Z,9.70
2023-04-01T04:41:00.134Z,9.80
2023-04-01T04:43:27.026Z,9.80
2023-04-01T04:45:54.015Z,9.80
2023-04-01T04:48:21.327Z,9.80
2023-04-01T04:50:51.011Z,9.90
2023-04-01T04:53:20.124Z,9.80
2023-04-01T04:55:50.010Z,9.90
2023-04-01T04:58:40.214Z,9.80
2023-04-01T05:01:13.177Z,9.80
2023-04-01T05:03:40.879Z,9.80
2023-04-01T05:06:09.438Z,9.80
2023-04-01T05:08:37.376Z,9.80
2023-04-01T05:11:04.393Z,9.80
2023-04-01T05:13:33.645Z,9.70
2023-04-01T05:16:00.387Z,9.70
2023-04-01T05:18:27.123Z,9.70
2023-04-01T05:20:55.133Z,9.70
2023-04-01T05:23:23.313Z,9.80
2023-04-01T05:25:51.922Z,9.80
2023-04-01T05:28:18.777Z,9.80
2023-04-01T05:30:47.742Z,9.90
2023-04-01T05:33:22.195Z,9.90
2023-04-01T05:35:49.308Z,9.90
2023-04-01T05:38:16.128Z,9.90
2023-04-01T05:40:42.880Z,9.90
2023-04-01T05:43:09.936Z,10.00
2023-04-01T05:45:36.833Z,10.00
2023-04-01T05:48:31.724Z,10.00
2023-04-01T05:50:58.831Z,10.00
2023-04-01T05:53:25.763Z,10.10
2023-04-01T05:55:52.627Z,10.20
2023-04-01T05:58:19.577Z,10.20
2023-04-01T06:00:47.932Z,10.30
2023-04-01T06:03:17.097Z,10.40
2023-04-01T06:05:45.290Z,10.40
2023-04-01T06:08:20.363Z,10.40
2023-04-01T06:11:17.242Z,10.50
2023-04-01T06:14:06.861Z,10.50
2023-04-01T06:17:06.857Z,10.40
2023-04-01T06:19:46.834Z,10.50
2023-04-01T06:22:35.343Z,10.50
2023-04-01T06:25:36.281Z,10.50
2023-04-01T06:28:34.297Z,10.60
2023-04-01T06:31:18.102Z,10.70
2023-04-01T06:33:57.589Z,10.90
2023-04-01T06:37:09.105Z,11.00
2023-04-01T06:39:47.996Z,11.00
2023-04-01T06:42:29.829Z,11.00
2023-04-01T06:45:36.691Z,10.90
2023-04-01T06:48:31.421Z,10.90
2023-04-01T06:51:32.960Z,10.80
2023-04-01T06:54:22.455Z,10.80
2023-04-01T06:57:14.332Z,10.90
2023-04-01T06:59:42.311Z,10.90
2023-04-01T07:02:21.023Z,10.80
2023-04-01T07:04:51.945Z,10.90
2023-04-01T07:07:42.391Z,10.90
2023-04-01T07:10:18.538Z,11.00
2023-04-01T07:13:11.127Z,11.00
2023-04-01T07:16:32.766Z,11.00
2023-04-01T07:19:21.842Z,11.10
2023-04-01T07:22:04.710Z,11.10
2023-04-01T07:24:55.361Z,11.00
2023-04-01T07:27:22.175Z,11.10
2023-04-01T07:29:49.079Z,11.10
2023-04-01T07:32:30.942Z,11.20
2023-04-01T07:35:22.647Z,11.20
2023-04-01T07:38:20.282Z,11.20
2023-04-01T07:41:03.834Z,11.20
2023-04-01T07:43:56.834Z,11.10
2023-04-01T07:46:55.710Z,11.10
2023-04-01T07:49:46.571Z,11.00
2023-04-01T07:52:19.258Z,10.90
2023-04-01T07:54:49.126Z,10.80
2023-04-01T07:57:25.253Z,10.80
2023-04-01T08:00:23.755Z,10.90
2023-04-01T08:03:23.745Z,11.00
2023-04-01T08:06:03.908Z,11.00
2023-04-01T08:08:50.752Z,11.00
2023-04-01T08:11:43.702Z,11.00
2023-04-01T08:15:02.312Z,11.00
2023-04-01T08:17:55.004Z,11.00
2023-04-01T08:20:28.993Z,11.10
2023-04-01T08:23:06.770Z,11.00
2023-04-01T08:25:44.721Z,11.10
2023-04-01T08:28:35.549Z,11.20
2023-04-01T08:31:10.219Z,11.30
2023-04-01T08:33:37.810Z,11.40
2023-04-01T08:36:31.252Z,11.40
2023-04-01T08:39:31.869Z,11.40
2023-04-01T08:42:05.224Z,11.40
2023-04-01T08:45:08.039Z,11.40
2023-04-01T08:48:10.150Z,11.50
2023-04-01T08:50:54.347Z,11.50
2023-04-01T08:54:07.179Z,11.60
2023-04-01T08:56:48.514Z,11.50
2023-04-01T08:59:37.293Z,11.50
2023-04-01T09:02:29.664Z,11.40
2023-04-01T09:05:37.453Z,11.30
2023-04-01T09:08:39.061Z,11.30
2023-04-01T09:11:07.750Z,11.30
2023-04-01T09:13:56.089Z,11.30
2023-04-01T09:17:00.846Z,11.30
2023-04-01T09:19:52.401Z,11.30
2023-04-01T09:22:34.911Z,11.20
2023-04-01T09:25:13.570Z,11.20
2023-04-01T09:27:57.590Z,11.10
2023-04-01T09:30:57.967Z,11.20
2023-04-01T09:33:43.743Z,11.20
2023-04-01T09:36:29.641Z,11.20
2023-04-01T09:39:25.493Z,11.30
2023-04-01T09:42:14.673Z,11.40
2023-04-01T09:45:21.142Z,11.50
2023-04-01T09:48:13.415Z,11.70
2023-04-01T09:50:48.339Z,11.70
2023-04-01T09:53:37.947Z,11.70
2023-04-01T09:56:40.504Z,11.60
2023-04-01T09:59:35.466Z,11.60
2023-04-01T10:03:11.189Z,11.80
2023-04-01T10:05:41.237Z,11.90
2023-04-01T10:08:17.084Z,12.00
2023-04-01T10:10:51.714Z,12.00
2023-04-01T10:13:48.180Z,12.10
2023-04-01T10:16:46.394Z,12.10
2023-04-01T10:19:19.483Z,12.20
2023-04-01T10:22:14.178Z,12.30
2023-04-01T10:24:53.957Z,12.30
2023-04-01T10:27:29.896Z,12.20
2023-04-01T10:30:30.506Z,12.20
2023-04-01T10:33:03.055Z,12.10
2023-04-01T10:35:52.590Z,12.10
2023-04-01T10:38:48.894Z,12.10
2023-04-01T10:41:37.510Z,12.00
2023-04-01T10:45:11.364Z,11.90
2023-04-01T10:48:06.462Z,11.80
2023-04-01T10:51:25.330Z,11.80
2023-04-01T10:54:13.972Z,11.70
2023-04-01T10:56:59.599Z,11.70
2023-04-01T11:00:18.643Z,11.70
2023-04-01T11:03:32.201Z,11.60
2023-04-01T11:06:32.429Z,11.60
2023-04-01T11:09:05.284Z,11.60
2023-04-01T11:12:03.460Z,11.60
2023-04-01T11:14:34.480Z,11.50
2023-04-01T11:17:42.660Z,11.40
2023-04-01T11:20:12.651Z,11.40
2023-04-01T11:23:10.586Z,11.40
2023-04-01T11:25:57.654Z,11.30
2023-04-01T11:28:48.696Z,11.40
2023-04-01T11:31:16.531Z,11.40
2023-04-01T11:33:46.517Z,11.40
2023-04-01T11:36:38.273Z,11.50
2023-04-01T11:39:37.078Z,11.60
2023-04-01T11:42:53.367Z,11.60
2023-04-01T11:46:10.329Z,11.50
2023-04-01T11:48:51.802Z,11.40
2023-04-01T11:51:28.955Z,11.30
2023-04-01T11:54:38.785Z,11.20
2023-04-01T11:57:24.261Z,11.10
2023-04-01T12:00:00.089Z,11.00
2023-04-01T12:02:49.735Z,11.00
2023-04-01T12:05:35.103Z,11.00
2023-04-01T12:08:25.483Z,10.90
2023-04-01T12:11:31.239Z,10.90
2023-04-01T12:14:06.119Z,10.90
2023-04-01T12:16:45.673Z,10.90
2023-04-01T12:19:15.539Z,11.00
2023-04-01T12:22:11.218Z,11.30
2023-04-01T12:24:48.552Z,11.50
2023-04-01T12:27:28.649Z,11.70
2023-04-01T12:30:31.188Z,11.80
2023-04-01T12:33:37.271Z,12.00
2023-04-01T12:36:36.177Z,12.20
2023-04-01T12:39:24.051Z,12.30
2023-04-01T12:42:11.529Z,12.50
2023-04-01T12:44:50.911Z,12.70
2023-04-01T12:47:57.110Z,12.80
2023-04-01T12:50:39.445Z,12.90
2023-04-01T12:53:12.009Z,13.00
2023-04-01T12:55:43.962Z,13.20
2023-04-01T12:58:23.651Z,13.40
2023-04-01T13:01:26.211Z,13.40
2023-04-01T13:04:27.342Z,13.50
2023-04-01T13:07:03.378Z,13.40
2023-04-01T13:09:56.205Z,13.10
2023-04-01T13:12:41.842Z,13.00
2023-04-01T13:15:18.392Z,12.90
2023-04-01T13:18:06.378Z,12.90
2023-04-01T13:21:07.393Z,12.90
2023-04-01T13:23:43.820Z,12.90
2023-04-01T13:26:33.591Z,12.80
2023-04-01T13:29:16.408Z,12.60
2023-04-01T13:32:14.891Z,12.60
2023-04-01T13:35:12.454Z,12.60
2023-04-01T13:38:03.833Z,12.60
2023-04-01T13:41:08.020Z,12.60
2023-04-01T13:43:47.537Z,12.50
2023-04-01T13:46:42.566Z,12.40
2023-04-01T13:49:57.099Z,12.30
2023-04-01T13:52:50.334Z,12.20
2023-04-01T13:55:25.832Z,12.20
2023-04-01T13:58:18.227Z,12.10
2023-04-01T14:01:13.906Z,12.10
2023-04-01T14:03:55.408Z,12.10
2023-04-01T14:06:47.435Z,12.00
2023-04-01T14:09:17.674Z,12.00
2023-04-01T14:11:56.313Z,11.90
2023-04-01T14:14:35.704Z,11.80
2023-04-01T14:17:18.894Z,11.70
2023-04-01T14:20:27.513Z,11.60
2023-04-01T14:22:54.264Z,11.50
2023-04-01T14:25:45.919Z,11.40
2023-04-01T14:28:49.667Z,11.40
2023-04-01T14:31:37.037Z,11.30
2023-04-01T14:34:13.540Z,11.20
2023-04-01T14:37:01.477Z,11.20
2023-04-01T14:39:49.962Z,11.10
2023-04-01T14:42:28.988Z,11.00
2023-04-01T14:45:27.007Z,11.00
2023-04-01T14:48:22.957Z,11.10
2023-04-01T14:50:56.372Z,11.10
2023-04-01T14:53:26.566Z,11.10
2023-04-01T14:55:54.727Z,11.10
2023-04-01T14:58:26.389Z,11.10
2023-04-01T15:01:19.653Z,11.10
2023-04-01T15:04:24.061Z,11.10
2023-04-01T15:07:23.669Z,11.10
2023-04-01T15:10:06.845Z,11.10
2023-04-01T15:12:35.645Z,11.10
2023-04-01T15:15:02.434Z,11.10
2023-04-01T15:17:44.549Z,11.10
2023-04-01T15:20:49.246Z,11.10
2023-04-01T15:23:27.983Z,11.00
2023-04-01T15:26:13.879Z,11.00
2023-04-01T15:29:09.556Z,11.00
2023-04-01T15:31:48.299Z,11.00
2023-04-01T15:34:46.939Z,11.00
2023-04-01T15:37:41.853Z,10.90
2023-04-01T15:40:19.799Z,10.90
2023-04-01T15:43:06.264Z,10.80
2023-04-01T15:45:47.397Z,10.80
2023-04-01T15:48:29.183Z,10.80
2023-04-01T15:51:20.437Z,10.80
2023-04-01T15:54:06.057Z,10.90
2023-04-01T15:56:47.965Z,10.80
2023-04-01T15:59:38.101Z,10.80
2023-04-01T16:02:47.301Z,10.80
2023-04-01T16:06:08.027Z,10.70
2023-04-01T16:09:09.720Z,10.70
2023-04-01T16:11:41.774Z,10.60
2023-04-01T16:14:29.430Z,10.60
2023-04-01T16:17:33.076Z,10.60
2023-04-01T16:20:18.715Z,10.60
2023-04-01T16:23:03.242Z,10.60
2023-04-01T16:26:14.882Z,10.70
2023-04-01T16:28:54.453Z,10.70
2023-04-01T16:31:46.884Z,10.70
2023-04-01T16:34:31.248Z,10.70
2023-04-01T16:37:30.261Z,10.70
2023-04-01T16:40:27.976Z,10.70
2023-04-01T16:43:06.945Z,10.70
2023-04-01T16:45:40.967Z,10.70
2023-04-01T16:48:21.444Z,10.70
2023-04-01T16:51:05.307Z,10.70
2023-04-01T16:53:37.848Z,10.70
2023-04-01T16:56:23.783Z,10.60
2023-04-01T16:59:05.228Z,10.60
2023-04-01T17:01:48.586Z,10.60
2023-04-01T17:04:29.849Z,10.60
2023-04-01T17:07:20.713Z,10.60
2023-04-01T17:09:50.410Z,10.60
2023-04-01T17:12:35.488Z,10.60
2023-04-01T17:15:05.048Z,10.60
2023-04-01T17:17:37.525Z,10.60
2023-04-01T17:20:04.555Z,10.50
2023-04-01T17:22:40.718Z,10.60
2023-04-01T17:25:31.629Z,10.50
2023-04-01T17:28:21.135Z,10.60
2023-04-01T17:31:25.918Z,10.50
2023-04-01T17:34:22.210Z,10.50
2023-04-01T17:37:04.316Z,10.40
2023-04-01T17:39:46.231Z,10.40
2023-04-01T17:42:35.364Z,10.40
2023-04-01T17:45:10.853Z,10.40
2023-04-01T17:47:46.633Z,10.30
2023-04-01T17:50:24.226Z,10.30
2023-04-01T17:53:10.919Z,10.30
2023-04-01T17:56:06.937Z,10.20
2023-04-01T17:58:59.706Z,10.20
2023-04-01T18:01:59.657Z,10.30
2023-04-01T18:05:02.168Z,10.30
2023-04-01T18:07:36.285Z,10.30
2023-04-01T18:10:15.320Z,10.20
2023-04-01T18:13:07.038Z,10.20
2023-04-01T18:15:46.105Z,10.10
2023-04-01T18:18:40.353Z,10.10
2023-04-01T18:21:25.577Z,10.10
2023-04-01T18:24:24.266Z,10.10
2023-04-01T18:27:16.902Z,10.10
2023-04-01T18:29:59.960Z,10.10
2023-04-01T18:32:36.035Z,10.10
2023-04-01T18:35:15.215Z,10.20
2023-04-01T18:37:52.123Z,10.20
2023-04-01T18:40:25.359Z,10.20
2023-04-01T18:43:24.759Z,10.20
2023-04-01T18:46:06.910Z,10.20
2023-04-01T18:48:58.741Z,10.20
2023-04-01T18:51:40.008Z,10.20
2023-04-01T18:54:24.227Z,10.20
2023-04-01T18:56:51.707Z,10.20
2023-04-01T18:59:30.628Z,10.20
2023-04-01T19:02:29.675Z,10.30
2023-04-01T19:05:05.810Z,10.30
2023-04-01T19:07:44.844Z,10.30
2023-04-01T19:10:23.932Z,10.30
2023-04-01T19:12:53.709Z,10.30
2023-04-01T19:15:47.077Z,10.20
2023-04-01T19:18:41.937Z,10.20
2023-04-01T19:21:29.039Z,10.20
2023-04-01T19:24:10.135Z,10.20
2023-04-01T19:27:19.910Z,10.20
2023-04-01T19:30:20.522Z,10.10
2023-04-01T19:33:05.946Z,10.10
2023-04-01T19:35:52.527Z,10.20
2023-04-01T19:38:40.233Z,10.20
2023-04-01T19:41:19.559Z,10.10
2023-04-01T19:44:17.617Z,10.10
2023-04-01T19:46:50.687Z,10.10
2023-04-01T19:49:25.358Z,10.10
2023-04-01T19:52:10.670Z,10.10
2023-04-01T19:54:37.536Z,10.00
2023-04-01T19:57:26.005Z,10.00
2023-04-01T20:00:14.888Z,10.00
2023-04-01T20:02:57.653Z,10.00
2023-04-01T20:05:52.307Z,10.00
2023-04-01T20:08:56.867Z,10.00
2023-04-01T20:11:39.790Z,10.00
2023-04-01T20:14:34.783Z,10.00
2023-04-01T20:17:08.137Z,10.00
2023-04-01T20:19:37.395Z,10.00
2023-04-01T20:22:16.804Z,10.00
2023-04-01T20:24:47.447Z,9.90
2023-04-01T20:27:14.299Z,9.90
2023-04-01T20:30:09.325Z,9.90
2023-04-01T20:32:49.280Z,9.90
2023-04-01T20:35:43.184Z,9.90
2023-04-01T20:38:40.116Z,9.90
2023-04-01T20:41:12.882Z,9.90
2023-04-01T20:44:13.707Z,9.90
2023-04-01T20:46:47.069Z,9.90
2023-04-01T20:49:49.435Z,9.90
2023-04-01T20:52:16.549Z,10.00
2023-04-01T20:55:08.133Z,10.00
2023-04-01T20:58:04.461Z,10.00
2023-04-01T21:00:59.139Z,10.10
2023-04-01T21:03:56.968Z,10.10
2023-04-01T21:06:27.722Z,10.10
2023-04-01T21:08:57.567Z,10.10
2023-04-01T21:11:55.288Z,10.10
2023-04-01T21:14:31.564Z,10.20
2023-04-01T21:17:21.517Z,10.20
2023-04-01T21:20:05.460Z,10.20
2023-04-01T21:22:37.495Z,10.20
2023-04-01T21:25:27.457Z,10.20
2023-04-01T21:28:15.924Z,10.20
2023-04-01T21:31:03.495Z,10.20
2023-04-01T21:33:46.078Z,10.20
2023-04-01T21:36:45.962Z,10.10
2023-04-01T21:39:40.561Z,10.10
2023-04-01T21:42:13.693Z,10.10
2023-04-01T21:45:02.058Z,10.10
2023-04-01T21:47:31.610Z,10.00
2023-04-01T21:50:19.850Z,9.90
2023-04-01T21:53:08.662Z,9.80
2023-04-01T21:55:53.558Z,9.70
2023-04-01T21:58:38.951Z,9.70
2023-04-01T22:01:17.051Z,9.70
2023-04-01T22:04:26.069Z,9.60
2023-04-01T22:07:03.544Z,9.60
2023-04-01T22:09:32.904Z,9.60
2023-04-01T22:12:06.619Z,9.60
2023-04-01T22:14:45.740Z,9.60
2023-04-01T22:17:19.989Z,9.50
2023-04-01T22:20:12.593Z,9.50
2023-04-01T22:23:13.005Z,9.50
2023-04-01T22:25:48.645Z,9.50
2023-04-01T22:28:51.904Z,9.50
2023-04-01T22:31:27.814Z,9.50
2023-04-01T22:34:10.629Z,9.50
2023-04-01T22:36:57.207Z,9.50
2023-04-01T22:39:48.080Z,9.50
2023-04-01T22:42:43.235Z,9.50
2023-04-01T22:45:41.675Z,9.50
2023-04-01T22:48:23.563Z,9.50
2023-04-01T22:50:50.339Z,9.50
2023-04-01T22:53:45.954Z,9.40
2023-04-01T22:56:19.479Z,9.40
2023-04-01T22:59:11.157Z,9.40
2023-04-01T23:01:51.891Z,9.40
2023-04-01T23:04:25.132Z,9.40
2023-04-01T23:06:58.800Z,9.40
2023-04-01T23:09:29.488Z,9.40
2023-04-01T23:12:05.123Z,9.40
2023-04-01T23:14:47.706Z,9.40
2023-04-01T23:17:39.487Z,9.40
2023-04-01T23:20:09.629Z,9.40
2023-04-01T23:22:45.537Z,9.40
2023-04-01T23:25:28.142Z,9.40
2023-04-01T23:28:00.922Z,9.40
2023-04-01T23:30:39.958Z,9.40
2023-04-01T23:33:30.379Z,9.40
2023-04-01T23:36:14.533Z,9.40
2023-04-01T23:38:43.285Z,9.40
2023-04-01T23:41:21.384Z,9.40
2023-04-01T23:43:59.222Z,9.40
2023-04-01T23:46:26.912Z,9.30
2023-04-01T23:48:54.542Z,9.30
2023-04-01T23:51:27.660Z,9.40
2023-04-01T23:54:10.539Z,9.40
2023-04-01T23:56:46.537Z,9.40
2023-04-01T23:59:23.953Z,9.40
